sensor_id;sensor_type;location;lat;lon;timestamp;pressure;altitude;pressure_sealevel;temperature;humidity
3122;BME280;1571;52.524;14.104;2022-09-16T00:01:11;99899.66;;;11.16;100.00
3122;BME280;1571;52.524;14.104;2022-09-16T00:03:40;99903.28;;;11.15;100.00
3122;BME280;1571;52.524;14.104;2022-09-16T00:06:17;99901.00;;;11.21;100.00
3122;BME280;1571;52.524;14.104;2022-09-16T00:08:46;99899.75;;;11.14;100.00
3122;BME280;1571;52.524;14.104;2022-09-16T00:11:15;99901.84;;;11.22;100.00
3122;BME280;1571;52.524;14.104;2022-09-16T00:13:44;99901.00;;;11.21;100.00
3122;BME280;1571;52.524;14.104;2022-09-16T00:16:16;99899.91;;;11.13;100.00
3122;BME280;1571;52.524;14.104;2022-09-16T00:18:45;99903.03;;;11.07;100.00
3122;BME280;1571;52.524;14.104;2022-09-16T00:21:15;99898.81;;;11.27;100.00
3122;BME280;1571;52.524;14.104;2022-09-16T00:23:43;99903.50;;;11.23;100.00
3122;BME280;1571;52.524;14.104;2022-09-16T00:26:11;99898.56;;;11.30;100.00
3122;BME280;1571;52.524;14.104;2022-09-16T00:28:40;99899.03;;;11.23;100.00
3122;BME280;1571;52.524;14.104;2022-09-16T00:31:08;99898.09;;;11.13;100.00
3122;BME280;1571;52.524;14.104;2022-09-16T00:33:36;99902.78;;;11.10;100.00
3122;BME280;1571;52.524;14.104;2022-09-16T00:36:06;99906.91;;;11.14;100.00
3122;BME280;1571;52.524;14.104;2022-09-16T00:38:36;99910.75;;;11.21;100.00
3122;BME280;1571;52.524;14.104;2022-09-16T00:41:05;99901.13;;;11.31;100.00
3122;BME280;1571;52.524;14.104;2022-09-16T00:43:47;99902.56;;;11.24;100.00
3122;BME280;1571;52.524;14.104;2022-09-16T00:46:18;99898.56;;;11.18;100.00
3122;BME280;1571;52.524;14.104;2022-09-16T00:48:48;99899.75;;;11.14;100.00
3122;BME280;1571;52.524;14.104;2022-09-16T00:51:17;99903.41;;;11.13;100.00
3122;BME280;1571;52.524;14.104;2022-09-16T00:53:52;99904.72;;;11.19;100.00
3122;BME280;1571;52.524;14.104;2022-09-16T00:56:25;99902.69;;;11.22;100.00
3122;BME280;1571;52.524;14.104;2022-09-16T00:58:56;99896.28;;;11.25;100.00
3122;BME280;1571;52.524;14.104;2022-09-16T01:01:30;99903.03;;;11.29;100.00
3122;BME280;1571;52.524;14.104;2022-09-16T01:04:03;99904.03;;;11.17;100.00
3122;BME280;1571;52.524;14.104;2022-09-16T01:06:36;99908.34;;;11.29;100.00
3122;BME280;1571;52.524;14.104;2022-09-16T01:09:07;99910.28;;;11.27;100.00
3122;BME280;1571;52.524;14.104;2022-09-16T01:11:35;99909.09;;;11.20;100.00
3122;BME280;1571;52.524;14.104;2022-09-16T01:14:04;99906.78;;;11.38;100.00
3122;BME280;1571;52.524;14.104;2022-09-16T01:16:55;99921.38;;;11.43;100.00
3122;BME280;1571;52.524;14.104;2022-09-16T01:19:40;99908.34;;;11.40;100.00
3122;BME280;1571;52.524;14.104;2022-09-16T01:22:23;99912.69;;;11.41;100.00
3122;BME280;1571;52.524;14.104;2022-09-16T01:25:00;99899.66;;;11.27;100.00
3122;BME280;1571;52.524;14.104;2022-09-16T01:30:42;99902.69;;;11.22;100.00
3122;BME280;1571;52.524;14.104;2022-09-16T01:33:16;99904.03;;;11.39;100.00
3122;BME280;1571;52.524;14.104;2022-09-16T01:36:02;99911.00;;;11.18;100.00
3122;BME280;1571;52.524;14.104;2022-09-16T01:38:49;99905.69;;;11.07;100.00
3122;BME280;1571;52.524;14.104;2022-09-16T01:41:26;99910.03;;;11.08;100.00
3122;BME280;1571;52.524;14.104;2022-09-16T01:44:06;99901.94;;;10.98;100.00
3122;BME280;1571;52.524;14.104;2022-09-16T01:46:44;99904.94;;;10.82;100.00
3122;BME280;1571;52.524;14.104;2022-09-16T01:49:19;99911.81;;;10.84;100.00
3122;BME280;1571;52.524;14.104;2022-09-16T01:51:55;99903.97;;;10.72;100.00
3122;BME280;1571;52.524;14.104;2022-09-16T01:54:31;99898.66;;;10.72;100.00
3122;BME280;1571;52.524;14.104;2022-09-16T01:57:07;99909.03;;;10.75;100.00
3122;BME280;1571;52.524;14.104;2022-09-16T01:59:40;99912.25;;;10.67;100.00
3122;BME280;1571;52.524;14.104;2022-09-16T02:02:16;99904.66;;;10.74;100.00
3122;BME280;1571;52.524;14.104;2022-09-16T02:04:49;99905.25;;;10.66;100.00
3122;BME280;1571;52.524;14.104;2022-09-16T02:07:21;99898.34;;;10.52;100.00
3122;BME280;1571;52.524;14.104;2022-09-16T02:09:53;99901.94;;;10.51;100.00
3122;BME280;1571;52.524;14.104;2022-09-16T02:12:26;99897.50;;;10.52;100.00
3122;BME280;1571;52.524;14.104;2022-09-16T02:15:00;99904.91;;;10.71;100.00
3122;BME280;1571;52.524;14.104;2022-09-16T02:17:32;99895.34;;;10.57;100.00
3122;BME280;1571;52.524;14.104;2022-09-16T02:20:06;99899.94;;;10.66;100.00
3122;BME280;1571;52.524;14.104;2022-09-16T02:22:38;99895.09;;;10.60;100.00
3122;BME280;1571;52.524;14.104;2022-09-16T02:25:08;99896.94;;;10.35;100.00
3122;BME280;1571;52.524;14.104;2022-09-16T02:27:39;99891.81;;;10.45;100.00
3122;BME280;1571;52.524;14.104;2022-09-16T02:30:11;99898.41;;;10.39;100.00
3122;BME280;1571;52.524;14.104;2022-09-16T02:32:46;99907.00;;;10.43;100.00
3122;BME280;1571;52.524;14.104;2022-09-16T02:35:17;99899.63;;;10.47;100.00
3122;BME280;1571;52.524;14.104;2022-09-16T02:37:49;99896.56;;;10.29;100.00
3122;BME280;1571;52.524;14.104;2022-09-16T02:40:22;99905.78;;;10.36;100.00
3122;BME280;1571;52.524;14.104;2022-09-16T02:42:51;99904.09;;;10.22;100.00
3122;BME280;1571;52.524;14.104;2022-09-16T02:45:23;99911.94;;;10.24;100.00
3122;BME280;1571;52.524;14.104;2022-09-16T02:48:00;99899.50;;;10.37;100.00
3122;BME280;1571;52.524;14.104;2022-09-16T02:50:38;99908.94;;;10.28;100.00
3122;BME280;1571;52.524;14.104;2022-09-16T02:53:13;99906.13;;;10.18;100.00
3122;BME280;1571;52.524;14.104;2022-09-16T02:55:51;99906.75;;;10.22;100.00
3122;BME280;1571;52.524;14.104;2022-09-16T02:58:21;99904.44;;;10.17;100.00
3122;BME280;1571;52.524;14.104;2022-09-16T03:00:51;99910.47;;;10.19;100.00
3122;BME280;1571;52.524;14.104;2022-09-16T03:03:22;99913.81;;;10.10;100.00
3122;BME280;1571;52.524;14.104;2022-09-16T03:06:14;99910.75;;;10.28;100.00
3122;BME280;1571;52.524;14.104;2022-09-16T03:08:43;99908.34;;;10.25;100.00
3122;BME280;1571;52.524;14.104;2022-09-16T03:11:21;99912.69;;;10.26;100.00
3122;BME280;1571;52.524;14.104;2022-09-16T03:14:06;99908.34;;;10.25;100.00
3122;BME280;1571;52.524;14.104;2022-09-16T03:16:45;99922.06;;;10.18;100.00
3122;BME280;1571;52.524;14.104;2022-09-16T03:19:24;99916.34;;;10.12;100.00
3122;BME280;1571;52.524;14.104;2022-09-16T03:22:00;99920.13;;;10.20;100.00
3122;BME280;1571;52.524;14.104;2022-09-16T03:24:37;99911.50;;;10.06;100.00
3122;BME280;1571;52.524;14.104;2022-09-16T03:27:12;99913.81;;;10.10;100.00
3122;BME280;1571;52.524;14.104;2022-09-16T03:29:48;99921.03;;;10.08;100.00
3122;BME280;1571;52.524;14.104;2022-09-16T03:32:20;99916.19;;;10.02;100.00
3122;BME280;1571;52.524;14.104;2022-09-16T03:34:53;99924.16;;;10.02;100.00
3122;BME280;1571;52.524;14.104;2022-09-16T03:37:23;99921.56;;;10.13;100.00
3122;BME280;1571;52.524;14.104;2022-09-16T03:39:57;99919.06;;;10.23;100.00
3122;BME280;1571;52.524;14.104;2022-09-16T03:42:26;99923.22;;;10.14;100.00
3122;BME280;1571;52.524;14.104;2022-09-16T03:44:55;99921.81;;;10.21;100.00
3122;BME280;1571;52.524;14.104;2022-09-16T03:47:23;99926.25;;;10.34;100.00
3122;BME280;1571;52.524;14.104;2022-09-16T03:49:52;99935.06;;;10.34;100.00
3122;BME280;1571;52.524;14.104;2022-09-16T03:52:21;99917.41;;;10.57;100.00
3122;BME280;1571;52.524;14.104;2022-09-16T03:54:49;99914.28;;;10.63;100.00
3122;BME280;1571;52.524;14.104;2022-09-16T03:57:17;99916.84;;;10.65;100.00
3122;BME280;1571;52.524;14.104;2022-09-16T03:59:45;99919.66;;;10.86;100.00
3122;BME280;1571;52.524;14.104;2022-09-16T04:02:14;99910.47;;;10.79;100.00
3122;BME280;1571;52.524;14.104;2022-09-16T04:04:42;99914.31;;;10.75;100.00
3122;BME280;1571;52.524;14.104;2022-09-16T04:07:11;99899.56;;;10.59;100.00
3122;BME280;1571;52.524;14.104;2022-09-16T04:09:39;99901.03;;;10.63;100.00
3122;BME280;1571;52.524;14.104;2022-09-16T04:12:08;99895.59;;;10.54;100.00
3122;BME280;1571;52.524;14.104;2022-09-16T04:14:36;99904.78;;;10.72;100.00
3122;BME280;1571;52.524;14.104;2022-09-16T04:17:05;99914.56;;;10.72;100.00
3122;BME280;1571;52.524;14.104;2022-09-16T04:19:33;99910.69;;;10.76;100.00
3122;BME280;1571;52.524;14.104;2022-09-16T04:22:01;99913.63;;;10.84;100.00
3122;BME280;1571;52.524;14.104;2022-09-16T04:24:31;99908.41;;;10.71;100.00
3122;BME280;1571;52.524;14.104;2022-09-16T04:26:59;99904.41;;;10.66;100.00
3122;BME280;1571;52.524;14.104;2022-09-16T04:29:27;99908.50;;;10.58;100.00
3122;BME280;1571;52.524;14.104;2022-09-16T04:31:56;99903.97;;;10.72;100.00
3122;BME280;1571;52.524;14.104;2022-09-16T04:34:24;99906.94;;;10.67;100.00
3122;BME280;1571;52.524;14.104;2022-09-16T04:36:52;99901.88;;;10.64;100.00
3122;BME280;1571;52.524;14.104;2022-09-16T04:39:20;99900.44;;;10.71;100.00
3122;BME280;1571;52.524;14.104;2022-09-16T04:41:50;99907.63;;;10.58;100.00
3122;BME280;1571;52.524;14.104;2022-09-16T04:44:18;99906.09;;;10.67;100.00
3122;BME280;1571;52.524;14.104;2022-09-16T04:46:46;99908.53;;;10.70;100.00
3122;BME280;1571;52.524;14.104;2022-09-16T04:49:14;99907.09;;;10.77;100.00
3122;BME280;1571;52.524;14.104;2022-09-16T04:51:43;99906.38;;;10.86;100.00
3122;BME280;1571;52.524;14.104;2022-09-16T04:54:11;99905.69;;;10.95;100.00
3122;BME280;1571;52.524;14.104;2022-09-16T04:56:39;99897.44;;;10.87;100.00
3122;BME280;1571;52.524;14.104;2022-09-16T04:59:09;99902.53;;;10.90;100.00
3122;BME280;1571;52.524;14.104;2022-09-16T05:01:37;99905.78;;;11.05;100.00
3122;BME280;1571;52.524;14.104;2022-09-16T05:04:06;99898.44;;;11.09;100.00
3122;BME280;1571;52.524;14.104;2022-09-16T05:06:36;99897.34;;;11.11;100.00
3122;BME280;1571;52.524;14.104;2022-09-16T05:09:06;99900.38;;;11.18;100.00
3122;BME280;1571;52.524;14.104;2022-09-16T05:11:36;99897.47;;;11.10;100.00
3122;BME280;1571;52.524;14.104;2022-09-16T05:14:06;99890.94;;;11.02;100.00
3122;BME280;1571;52.524;14.104;2022-09-16T05:16:36;99894.59;;;11.01;100.00
3122;BME280;1571;52.524;14.104;2022-09-16T05:19:04;99890.81;;;10.93;100.00
3122;BME280;1571;52.524;14.104;2022-09-16T05:21:34;99898.34;;;11.10;100.00
3122;BME280;1571;52.524;14.104;2022-09-16T05:24:04;99892.16;;;11.21;100.00
3122;BME280;1571;52.524;14.104;2022-09-16T05:26:35;99886.63;;;11.24;100.00
3122;BME280;1571;52.524;14.104;2022-09-16T05:29:06;99895.91;;;11.18;100.00
3122;BME280;1571;52.524;14.104;2022-09-16T05:31:37;99895.69;;;11.21;100.00
3122;BME280;1571;52.524;14.104;2022-09-16T05:34:10;99901.00;;;11.21;100.00
3122;BME280;1571;52.524;14.104;2022-09-16T05:36:39;99895.53;;;11.12;100.00
3122;BME280;1571;52.524;14.104;2022-09-16T05:39:10;99897.13;;;11.25;100.00
3122;BME280;1571;52.524;14.104;2022-09-16T05:41:56;99892.31;;;11.31;100.00
3122;BME280;1571;52.524;14.104;2022-09-16T05:44:25;99888.56;;;11.44;100.00
3122;BME280;1571;52.524;14.104;2022-09-16T05:46:55;99886.25;;;11.29;100.00
3122;BME280;1571;52.524;14.104;2022-09-16T05:49:23;99882.50;;;11.31;100.00
3122;BME280;1571;52.524;14.104;2022-09-16T05:51:52;99884.44;;;11.40;100.00
3122;BME280;1571;52.524;14.104;2022-09-16T05:54:20;99892.16;;;11.32;100.00
3122;BME280;1571;52.524;14.104;2022-09-16T05:56:51;99887.94;;;11.52;100.00
3122;BME280;1571;52.524;14.104;2022-09-16T05:59:19;99878.34;;;11.72;100.00
3122;BME280;1571;52.524;14.104;2022-09-16T06:01:49;99882.47;;;11.87;100.00
3122;BME280;1571;52.524;14.104;2022-09-16T06:04:19;99879.03;;;11.85;100.00
3122;BME280;1571;52.524;14.104;2022-09-16T06:06:47;99879.53;;;11.91;100.00
3122;BME280;1571;52.524;14.104;2022-09-16T06:09:21;99880.03;;;11.96;100.00
3122;BME280;1571;52.524;14.104;2022-09-16T06:11:51;99880.91;;;12.17;100.00
3122;BME280;1571;52.524;14.104;2022-09-16T06:14:27;99884.06;;;12.11;99.81
3122;BME280;1571;52.524;14.104;2022-09-16T06:16:56;99875.41;;;11.98;99.75
3122;BME280;1571;52.524;14.104;2022-09-16T06:19:26;99873.28;;;11.92;99.82
3122;BME280;1571;52.524;14.104;2022-09-16T06:21:54;99883.25;;;11.99;100.00
3122;BME280;1571;52.524;14.104;2022-09-16T06:24:23;99879.03;;;11.97;100.00
3122;BME280;1571;52.524;14.104;2022-09-16T06:26:51;99882.38;;;12.10;100.00
3122;BME280;1571;52.524;14.104;2022-09-16T06:29:19;99879.31;;;12.26;98.84
3122;BME280;1571;52.524;14.104;2022-09-16T06:31:47;99886.72;;;12.11;98.31
3122;BME280;1571;52.524;14.104;2022-09-16T06:34:16;99879.63;;;12.12;98.23
3122;BME280;1571;52.524;14.104;2022-09-16T06:36:46;99879.91;;;12.50;97.02
3122;BME280;1571;52.524;14.104;2022-09-16T06:39:15;99876.41;;;12.50;95.92
3122;BME280;1571;52.524;14.104;2022-09-16T06:41:44;99880.81;;;12.61;95.38
3122;BME280;1571;52.524;14.104;2022-09-16T06:44:12;99882.19;;;12.55;95.29
3122;BME280;1571;52.524;14.104;2022-09-16T06:46:40;99878.69;;;12.55;95.75
3122;BME280;1571;52.524;14.104;2022-09-16T06:49:10;99880.09;;;12.80;94.59
3122;BME280;1571;52.524;14.104;2022-09-16T06:51:39;99889.19;;;12.98;93.12
3122;BME280;1571;52.524;14.104;2022-09-16T06:54:09;99884.38;;;13.13;92.10
3122;BME280;1571;52.524;14.104;2022-09-16T06:56:37;99883.56;;;13.01;91.98
3122;BME280;1571;52.524;14.104;2022-09-16T06:59:08;99902.56;;;12.87;91.81
3122;BME280;1571;52.524;14.104;2022-09-16T07:01:37;99891.91;;;12.87;91.91
3122;BME280;1571;52.524;14.104;2022-09-16T07:04:07;99908.81;;;12.97;92.07
3122;BME280;1571;52.524;14.104;2022-09-16T07:06:36;99907.75;;;13.09;91.37
3122;BME280;1571;52.524;14.104;2022-09-16T07:09:26;99901.06;;;12.94;91.86
3122;BME280;1571;52.524;14.104;2022-09-16T07:11:55;99890.00;;;13.20;91.35
3122;BME280;1571;52.524;14.104;2022-09-16T07:14:25;99897.41;;;13.16;90.69
3122;BME280;1571;52.524;14.104;2022-09-16T07:16:54;99896.28;;;13.19;91.80
3122;BME280;1571;52.524;14.104;2022-09-16T07:19:22;99896.72;;;13.45;90.13
3122;BME280;1571;52.524;14.104;2022-09-16T07:21:51;99901.03;;;13.36;88.47
3122;BME280;1571;52.524;14.104;2022-09-16T07:24:19;99906.09;;;13.08;89.96
3122;BME280;1571;52.524;14.104;2022-09-16T07:26:48;99903.84;;;13.13;89.32
3122;BME280;1571;52.524;14.104;2022-09-16T07:29:17;99908.84;;;13.28;90.25
3122;BME280;1571;52.524;14.104;2022-09-16T07:31:46;99900.09;;;13.26;88.86
3122;BME280;1571;52.524;14.104;2022-09-16T07:34:15;99899.94;;;13.18;89.00
3122;BME280;1571;52.524;14.104;2022-09-16T07:36:46;99902.59;;;13.39;89.40
3122;BME280;1571;52.524;14.104;2022-09-16T07:39:16;99899.69;;;14.02;87.47
3122;BME280;1571;52.524;14.104;2022-09-16T07:41:45;99897.03;;;14.31;85.74
3122;BME280;1571;52.524;14.104;2022-09-16T07:44:17;99909.94;;;14.16;83.80
3122;BME280;1571;52.524;14.104;2022-09-16T07:46:46;99899.69;;;14.31;83.25
3122;BME280;1571;52.524;14.104;2022-09-16T07:49:17;99909.63;;;13.90;83.82
3122;BME280;1571;52.524;14.104;2022-09-16T07:51:45;99905.00;;;14.02;83.98
3122;BME280;1571;52.524;14.104;2022-09-16T07:54:14;99905.28;;;13.99;83.80
3122;BME280;1571;52.524;14.104;2022-09-16T07:56:43;99911.22;;;14.12;82.97
3122;BME280;1571;52.524;14.104;2022-09-16T07:59:14;99907.41;;;14.34;81.98
3122;BME280;1571;52.524;14.104;2022-09-16T08:01:47;99903.91;;;14.33;83.53
3122;BME280;1571;52.524;14.104;2022-09-16T08:04:16;99912.63;;;14.45;81.71
3122;BME280;1571;52.524;14.104;2022-09-16T08:06:45;99903.91;;;14.72;80.11
3122;BME280;1571;52.524;14.104;2022-09-16T08:09:14;99909.38;;;15.00;78.05
3122;BME280;1571;52.524;14.104;2022-09-16T08:12:04;99901.94;;;14.84;79.03
3122;BME280;1571;52.524;14.104;2022-09-16T08:14:33;99906.72;;;14.81;79.27
3122;BME280;1571;52.524;14.104;2022-09-16T08:17:03;99913.72;;;14.04;79.85
3122;BME280;1571;52.524;14.104;2022-09-16T08:19:31;99911.22;;;14.12;81.01
3122;BME280;1571;52.524;14.104;2022-09-16T08:22:00;99910.09;;;14.24;80.39
3122;BME280;1571;52.524;14.104;2022-09-16T08:24:28;99912.34;;;14.29;79.29
3122;BME280;1571;52.524;14.104;2022-09-16T08:26:57;99909.13;;;14.64;79.56
3122;BME280;1571;52.524;14.104;2022-09-16T08:29:25;99904.81;;;15.10;79.28
3122;BME280;1571;52.524;14.104;2022-09-16T08:31:53;99910.09;;;14.83;76.10
3122;BME280;1571;52.524;14.104;2022-09-16T08:34:23;99911.72;;;15.03;75.63
3122;BME280;1571;52.524;14.104;2022-09-16T08:36:51;99909.22;;;14.92;75.78
3122;BME280;1571;52.524;14.104;2022-09-16T08:39:19;99905.25;;;15.15;75.45
3122;BME280;1571;52.524;14.104;2022-09-16T08:44:53;99919.78;;;15.40;73.82
3122;BME280;1571;52.524;14.104;2022-09-16T08:47:37;99918.78;;;15.69;73.41
3122;BME280;1571;52.524;14.104;2022-09-16T08:50:14;99930.00;;;15.92;72.48
3122;BME280;1571;52.524;14.104;2022-09-16T08:52:44;99928.16;;;15.93;71.49
3122;BME280;1571;52.524;14.104;2022-09-16T08:55:16;99935.47;;;15.63;71.59
3122;BME280;1571;52.524;14.104;2022-09-16T08:57:52;99933.44;;;15.75;71.35
3122;BME280;1571;52.524;14.104;2022-09-16T09:00:21;99938.66;;;15.39;72.60
3122;BME280;1571;52.524;14.104;2022-09-16T09:02:52;99940.75;;;14.88;72.74
3122;BME280;1571;52.524;14.104;2022-09-16T09:05:29;99930.91;;;14.79;73.21
3122;BME280;1571;52.524;14.104;2022-09-16T09:08:14;99933.41;;;15.00;73.73
3122;BME280;1571;52.524;14.104;2022-09-16T09:10:48;99936.94;;;14.91;73.50
3122;BME280;1571;52.524;14.104;2022-09-16T09:13:29;99928.53;;;14.76;74.11
3122;BME280;1571;52.524;14.104;2022-09-16T09:16:08;99923.88;;;14.58;75.29
3122;BME280;1571;52.524;14.104;2022-09-16T09:18:43;99925.00;;;14.66;75.42
3122;BME280;1571;52.524;14.104;2022-09-16T09:21:21;99932.63;;;14.70;75.59
3122;BME280;1571;52.524;14.104;2022-09-16T09:24:15;99927.81;;;14.74;75.60
3122;BME280;1571;52.524;14.104;2022-09-16T09:26:48;99918.84;;;14.75;75.74
3122;BME280;1571;52.524;14.104;2022-09-16T09:29:34;99917.59;;;15.16;76.44
3122;BME280;1571;52.524;14.104;2022-09-16T09:32:12;99913.38;;;15.51;74.08
3122;BME280;1571;52.524;14.104;2022-09-16T09:34:54;99920.66;;;15.96;71.59
3122;BME280;1571;52.524;14.104;2022-09-16T09:37:37;99919.75;;;16.06;70.10
3122;BME280;1571;52.524;14.104;2022-09-16T09:40:13;99917.69;;;16.17;69.66
3122;BME280;1571;52.524;14.104;2022-09-16T09:42:47;99908.97;;;16.33;70.56
3122;BME280;1571;52.524;14.104;2022-09-16T09:45:19;99919.53;;;16.71;68.35
3122;BME280;1571;52.524;14.104;2022-09-16T09:47:54;99943.09;;;16.13;68.84
3122;BME280;1571;52.524;14.104;2022-09-16T09:50:27;99939.00;;;15.91;68.55
3122;BME280;1571;52.524;14.104;2022-09-16T09:53:06;99935.84;;;15.31;69.54
3122;BME280;1571;52.524;14.104;2022-09-16T09:55:40;99928.66;;;15.41;70.29
3122;BME280;1571;52.524;14.104;2022-09-16T09:58:25;99929.59;;;15.50;70.62
3122;BME280;1571;52.524;14.104;2022-09-16T10:00:55;99917.97;;;15.78;70.19
3122;BME280;1571;52.524;14.104;2022-09-16T10:03:25;99920.03;;;16.02;68.83
3122;BME280;1571;52.524;14.104;2022-09-16T10:05:53;99927.16;;;16.12;69.02
3122;BME280;1571;52.524;14.104;2022-09-16T10:08:27;99913.56;;;16.41;67.70
3122;BME280;1571;52.524;14.104;2022-09-16T10:10:58;99912.81;;;16.31;66.35
3122;BME280;1571;52.524;14.104;2022-09-16T10:13:29;99923.53;;;16.49;65.25
3122;BME280;1571;52.524;14.104;2022-09-16T10:16:11;99913.78;;;16.48;62.71
3122;BME280;1571;52.524;14.104;2022-09-16T10:18:41;99921.31;;;16.44;63.20
3122;BME280;1571;52.524;14.104;2022-09-16T10:21:11;99920.06;;;16.38;63.69
3122;BME280;1571;52.524;14.104;2022-09-16T10:23:52;99920.28;;;16.63;64.03
3122;BME280;1571;52.524;14.104;2022-09-16T10:26:23;99920.16;;;16.29;63.45
3122;BME280;1571;52.524;14.104;2022-09-16T10:28:54;99923.13;;;16.08;64.05
3122;BME280;1571;52.524;14.104;2022-09-16T10:31:25;99928.50;;;16.08;63.55
3122;BME280;1571;52.524;14.104;2022-09-16T10:34:01;99931.75;;;16.01;62.94
3122;BME280;1571;52.524;14.104;2022-09-16T10:36:33;99922.84;;;15.83;63.37
3122;BME280;1571;52.524;14.104;2022-09-16T10:39:03;99937.97;;;15.65;63.98
3122;BME280;1571;52.524;14.104;2022-09-16T10:41:33;99938.94;;;15.36;64.26
3122;BME280;1571;52.524;14.104;2022-09-16T10:44:05;99928.41;;;15.62;65.16
3122;BME280;1571;52.524;14.104;2022-09-16T10:46:34;99933.19;;;15.96;64.29
3122;BME280;1571;52.524;14.104;2022-09-16T10:49:08;99934.78;;;15.89;61.83
3122;BME280;1571;52.524;14.104;2022-09-16T10:51:37;99936.66;;;16.06;62.24
3122;BME280;1571;52.524;14.104;2022-09-16T10:54:22;99920.75;;;16.40;62.26
3122;BME280;1571;52.524;14.104;2022-09-16T10:56:51;99927.97;;;17.02;60.17
3122;BME280;1571;52.524;14.104;2022-09-16T10:59:19;99929.44;;;17.22;57.69
3122;BME280;1571;52.524;14.104;2022-09-16T11:01:54;99934.22;;;16.67;58.02
3122;BME280;1571;52.524;14.104;2022-09-16T11:04:47;99925.66;;;16.63;57.18
3122;BME280;1571;52.524;14.104;2022-09-16T11:07:29;99937.47;;;17.14;57.45
3122;BME280;1571;52.524;14.104;2022-09-16T11:10:10;99928.22;;;17.77;58.11
3122;BME280;1571;52.524;14.104;2022-09-16T11:12:58;99935.03;;;17.98;56.47
3122;BME280;1571;52.524;14.104;2022-09-16T11:15:41;99936.19;;;17.00;56.84
3122;BME280;1571;52.524;14.104;2022-09-16T11:18:24;99937.75;;;16.67;57.10
3122;BME280;1571;52.524;14.104;2022-09-16T11:21:09;99946.94;;;16.29;57.58
3122;BME280;1571;52.524;14.104;2022-09-16T11:23:55;99935.81;;;16.06;58.34
3122;BME280;1571;52.524;14.104;2022-09-16T11:26:38;99945.63;;;16.15;57.88
3122;BME280;1571;52.524;14.104;2022-09-16T11:29:22;99941.22;;;16.41;56.78
3122;BME280;1571;52.524;14.104;2022-09-16T11:31:58;99939.41;;;16.68;56.31
3122;BME280;1571;52.524;14.104;2022-09-16T11:34:44;99934.97;;;16.23;57.43
3122;BME280;1571;52.524;14.104;2022-09-16T11:37:23;99932.53;;;16.30;57.93
3122;BME280;1571;52.524;14.104;2022-09-16T11:40:13;99922.50;;;16.85;57.09
3122;BME280;1571;52.524;14.104;2022-09-16T11:42:49;99927.03;;;17.11;55.96
3122;BME280;1571;52.524;14.104;2022-09-16T11:45:30;99928.38;;;17.07;54.66
3122;BME280;1571;52.524;14.104;2022-09-16T11:48:17;99928.13;;;17.26;54.93
3122;BME280;1571;52.524;14.104;2022-09-16T11:50:55;99926.47;;;17.25;54.58
3122;BME280;1571;52.524;14.104;2022-09-16T11:53:36;99923.56;;;16.57;55.50
3122;BME280;1571;52.524;14.104;2022-09-16T11:56:12;99931.63;;;16.57;55.59
3122;BME280;1571;52.524;14.104;2022-09-16T11:58:46;99924.94;;;16.97;55.39
3122;BME280;1571;52.524;14.104;2022-09-16T12:01:34;99911.69;;;17.21;56.02
3122;BME280;1571;52.524;14.104;2022-09-16T12:04:08;99914.22;;;17.23;55.26
3122;BME280;1571;52.524;14.104;2022-09-16T12:06:41;99906.75;;;16.82;56.27
3122;BME280;1571;52.524;14.104;2022-09-16T12:09:20;99907.97;;;16.34;57.06
3122;BME280;1571;52.524;14.104;2022-09-16T12:11:52;99911.78;;;16.50;57.84
3122;BME280;1571;52.524;14.104;2022-09-16T12:14:28;99905.66;;;15.86;59.38
3122;BME280;1571;52.524;14.104;2022-09-16T12:17:02;99893.66;;;15.90;60.25
3122;BME280;1571;52.524;14.104;2022-09-16T12:19:35;99891.03;;;15.80;60.05
3122;BME280;1571;52.524;14.104;2022-09-16T12:22:07;99887.63;;;16.06;60.07
3122;BME280;1571;52.524;14.104;2022-09-16T12:24:41;99878.38;;;16.36;58.22
3122;BME280;1571;52.524;14.104;2022-09-16T12:27:18;99878.88;;;17.01;59.59
3122;BME280;1571;52.524;14.104;2022-09-16T12:29:56;99877.56;;;17.32;56.83
3122;BME280;1571;52.524;14.104;2022-09-16T12:32:33;99886.31;;;17.42;54.90
3122;BME280;1571;52.524;14.104;2022-09-16T12:35:09;99868.78;;;17.21;54.63
3122;BME280;1571;52.524;14.104;2022-09-16T12:37:45;99872.94;;;17.16;55.11
3122;BME280;1571;52.524;14.104;2022-09-16T12:40:18;99855.22;;;17.31;55.19
3122;BME280;1571;52.524;14.104;2022-09-16T12:43:20;99859.13;;;17.45;54.79
3122;BME280;1571;52.524;14.104;2022-09-16T12:49:32;99859.19;;;17.53;56.05
3122;BME280;1571;52.524;14.104;2022-09-16T12:52:30;99858.31;;;17.44;52.78
3122;BME280;1571;52.524;14.104;2022-09-16T12:55:30;99854.09;;;17.42;53.42
3122;BME280;1571;52.524;14.104;2022-09-16T12:58:15;99860.69;;;17.47;53.59
3122;BME280;1571;52.524;14.104;2022-09-16T13:00:53;99861.50;;;17.48;52.71
3122;BME280;1571;52.524;14.104;2022-09-16T13:03:25;99846.19;;;17.32;53.33
3122;BME280;1571;52.524;14.104;2022-09-16T13:05:58;99851.97;;;17.54;52.67
3122;BME280;1571;52.524;14.104;2022-09-16T13:08:29;99858.19;;;17.54;50.59
3122;BME280;1571;52.524;14.104;2022-09-16T13:10:59;99856.50;;;17.53;50.67
3122;BME280;1571;52.524;14.104;2022-09-16T13:13:51;99844.41;;;17.49;51.00
3122;BME280;1571;52.524;14.104;2022-09-16T13:16:30;99842.09;;;17.54;50.91
3122;BME280;1571;52.524;14.104;2022-09-16T13:19:31;99833.41;;;17.68;51.19
3122;BME280;1571;52.524;14.104;2022-09-16T13:22:12;99822.16;;;17.65;52.14
3122;BME280;1571;52.524;14.104;2022-09-16T13:24:44;99843.00;;;17.79;51.07
3122;BME280;1571;52.524;14.104;2022-09-16T13:27:24;99826.38;;;17.67;51.38
3122;BME280;1571;52.524;14.104;2022-09-16T13:30:09;99822.81;;;17.59;52.09
3122;BME280;1571;52.524;14.104;2022-09-16T13:32:42;99830.69;;;17.60;51.96
3122;BME280;1571;52.524;14.104;2022-09-16T13:35:33;99825.00;;;17.63;51.79
3122;BME280;1571;52.524;14.104;2022-09-16T13:38:20;99829.13;;;17.41;51.60
3122;BME280;1571;52.524;14.104;2022-09-16T13:40:57;99819.84;;;17.27;51.96
3122;BME280;1571;52.524;14.104;2022-09-16T13:43:30;99812.09;;;17.16;52.67
3122;BME280;1571;52.524;14.104;2022-09-16T13:46:01;99820.16;;;17.24;50.95
3122;BME280;1571;52.524;14.104;2022-09-16T13:48:35;99828.50;;;17.13;51.17